Denpasar, Indonesien

05:26 PM WITA on November 22, 2017 (GMT +0800)
Ubud | | Change Station

Elev 676 ft 8.51 °S, 115.25 °E | Updated 2 seconds ago

Regn
Regn
75.7 °F
Feels Like 74 °F
N
0.0
Vind Växlande Vind from Nordlig
Gusts 0.0 miles/tim

Idag
High -- | Low -- °F
--% Chance of Precip.
Yesterday
High -- | Low -- °F
Precip. -- tum
Lufttryck 29.68 tum
Sikt 3.1 miles
Molnigt Mestadels molnigt 1500 ft
Värmeindex 74 °F
Daggpunkt 76 °F
Luftfuktighet 100%
Rainfall 1.23 tum
Snow Depth Not available.
5:48 AM 6:21 PM
Första kvarteret, 13% visible
METAR WADD 220900Z 03006KT 010V080 5000 -RA BKN015 27/24 Q1005 TEMPO TL1000 5000 RA
Lufttryck 29.68 tum
Sikt 3.1 miles
Molnigt Mestadels molnigt 1500 ft
Värmeindex 74 °F
Daggpunkt 76 °F
Luftfuktighet 100%
Rainfall 1.23 tum
Snow Depth Not available.
5:48 AM 6:21 PM
Första kvarteret, 13% visible
METAR WADD 220900Z 03006KT 010V080 5000 -RA BKN015 27/24 Q1005 TEMPO TL1000 5000 RA

Get Severe Weather Alerts

Thanks for signing up!

Be on the lookout for a verification email in your inbox.

You'll start receiving the daily forecast at 6 AM.

×

10-Day Weather Forecast

×

Almanac

Astronomi

Nov. 22, 2017 Rise Set
Actual Time
Civil Twilight
Nautical Twilight
Astronomical Twilight
Månen
Length Of Visible Light
Dagens längd
Tomorrow will be .
, % of the Moon is Illuminated

Today's Extremes

Country Highs Country Lows

Community

WunderPhotos

Category 6

Welcome to Category 6. This is the collective home for Weather Underground's featured writeups by Dr. Jeff Masters (right), Bob Henson (left), Chris Burt, and other regular contributors.

Nearby

Air Quality

  Air Quality AQ Index Pollutant
Not available.

Snödjup

Station Depth Elevation

Earthquake Activity

Stad Distance Mag. Time & Date
Minimum magnitude displayed is 2.5.

Coastal Water Temperatures

Plats Temperatur

Stations

Nearby Weather Stations

Station Location Temp Vindavkylning Daggpunkt Luftfuktighet Vind Precip. Elev Uppdaterad Type